Latest Weather Observations for Narrandera Airport

IDN60801

Issued at 11:05 pm EST Thursday 31 July 2014 (issued every 30 minutes, with the page automatically refreshed every 10 minutes)

About weather observations | Map of weather stations | Latest weather observations for NSW | Other Formats
Station Details ID: 074148 Name: NARRANDERA AIRPORT Lat: -34.70 Lon: 146.51 Height: 145.0 m
Data from the previous 72 hours. | See also: Recent months for locations in New South Wales
Date/Time
EST
Temp
°C
App
Temp
°C
Dew
Point
Rel
Hum
%
Delta-T
°C
Wind Press
QNH
hPa
Press
MSL
hPa
Rain
since 9 am
mm
Dir
 
Spd
km/h
Gust
km/h
Spd
kts
Gust
kts
31/11:00pm 10.1 6.9 5.3 72 2.2 WSW 11 17 6 9 1007.3 1007.5 0.0
31/10:30pm 10.7 6.4 5.3 69 2.5 WSW 17 26 9 14 1007.0 - 0.0
31/10:00pm 12.1 5.7 5.0 62 3.3 WSW 28 50 15 27 1006.5 1006.7 0.0
31/09:54pm 12.5 6.0 4.7 59 3.6 WSW 28 50 15 27 1006.2 - 0.0
31/09:49pm 13.0 5.6 4.2 55 4.0 WSW 32 46 17 25 1006.1 - 0.0
31/09:30pm 15.3 8.4 -0.1 35 6.6 NNW 26 32 14 17 1004.0 - 0.0
31/09:00pm 14.8 8.2 -0.1 36 6.3 NNW 24 28 13 15 1004.0 1004.3 0.0
31/08:30pm 14.7 8.9 -0.2 36 6.3 NNW 20 24 11 13 1004.4 - 0.0
31/08:00pm 15.7 9.1 -0.5 33 6.9 NNW 24 32 13 17 1004.4 1004.7 0.0
31/07:30pm 16.5 8.7 -0.7 31 7.3 N 30 35 16 19 1004.4 - 0.0
31/07:00pm 16.9 9.6 -0.3 31 7.4 NNW 28 37 15 20 1004.5 1004.8 0.0
31/06:30pm 16.3 8.6 0.0 33 7.1 NNW 30 35 16 19 1004.4 - 0.0
31/06:00pm 17.6 9.5 -0.2 30 7.8 N 32 43 17 23 1004.1 1004.4 0.0
31/05:30pm 18.1 10.0 -0.2 29 8.0 NNW 32 39 17 21 1004.2 - 0.0
31/05:00pm 19.2 10.9 -0.2 27 8.6 NNW 33 44 18 24 1004.3 1004.6 0.0
31/04:30pm 20.2 10.4 0.1 26 9.0 NNW 41 54 22 29 1004.1 - 0.0
31/04:00pm 20.8 10.2 0.6 26 9.2 NNW 46 67 25 36 1004.3 1004.6 0.0
31/03:47pm 20.9 10.6 0.2 25 9.3 NNW 44 63 24 34 1004.6 - 0.0
31/03:30pm 21.0 10.4 0.8 26 9.2 NNW 46 57 25 31 1004.8 - 0.0
31/03:01pm 21.2 10.5 0.4 25 9.5 NNW 46 67 25 36 1005.3 - 0.0
31/03:00pm 21.3 10.7 1.0 26 9.3 NNW 46 59 25 32 1005.3 1005.5 0.0
31/02:47pm 21.4 11.4 1.1 26 9.3 NNW 43 61 23 33 1005.6 - 0.0
31/02:30pm 21.4 10.9 1.6 27 9.2 NNW 46 61 25 33 1006.0 - 0.0
31/02:00pm 20.7 10.8 3.0 31 8.4 NNW 44 59 24 32 1006.7 1006.9 0.0
31/01:30pm 20.5 10.9 3.3 32 8.2 NNW 43 57 23 31 1007.5 - 0.0
31/01:00pm 20.4 11.1 3.2 32 8.2 NW 41 56 22 30 1008.4 1008.6 0.0
31/12:30pm 20.3 13.1 4.8 36 7.6 NNW 32 43 17 23 1009.3 - 0.0
31/12:00pm 19.4 11.9 3.6 35 7.5 NNW 32 43 17 23 1010.1 1010.4 0.0
31/11:30am 18.0 12.9 5.9 45 6.0 N 22 30 12 16 1011.1 - 0.0
31/11:00am 17.1 11.1 5.4 46 5.7 NNW 26 33 14 18 1011.8 1012.1 0.0
31/10:30am 16.6 10.3 5.9 49 5.2 NNW 28 35 15 19 1012.5 - 0.0
31/10:00am 15.7 10.6 5.9 52 4.8 NNW 22 28 12 15 1012.9 1013.1 0.0
31/09:30am 14.4 9.2 5.7 56 4.2 NNW 22 28 12 15 1013.1 - 0.0
31/09:00am 12.7 8.0 5.1 60 3.5 NNW 19 24 10 13 1013.3 1013.5 0.0
31/08:30am 11.0 7.4 4.9 66 2.8 NNW 13 17 7 9 1013.5 - 0.0
31/08:00am 8.7 5.4 4.5 75 1.9 NW 11 13 6 7 1013.5 1013.7 0.0
31/07:30am 6.8 2.8 3.1 77 1.6 NW 13 15 7 8 1013.5 - 0.0
31/07:00am 8.3 3.6 3.4 71 2.1 NNW 17 20 9 11 1013.3 1013.5 0.0
31/06:30am 9.5 4.6 4.1 69 2.4 N 19 24 10 13 1013.3 - 0.0
31/06:00am 8.7 4.6 4.3 74 1.9 NNW 15 17 8 9 1013.4 1013.6 0.0
31/05:30am 7.8 3.9 3.5 74 1.9 NNW 13 19 7 10 1013.4 - 0.0
31/05:00am 8.0 5.0 4.2 77 1.7 NNW 9 11 5 6 1013.4 1013.6 0.0
31/04:30am 6.1 4.0 3.8 85 1.0 NNW 4 7 2 4 1013.7 - 0.0
31/04:00am 6.3 3.8 3.8 84 1.1 N 6 9 3 5 1014.1 1014.3 0.0
31/03:30am 6.4 4.4 4.4 87 0.9 NNE 4 9 2 5 1014.5 - 0.0
31/03:00am 6.3 5.2 4.9 91 0.6 CALM 0 0 0 0 1014.9 1015.1 0.0
31/02:30am 5.4 4.2 4.5 94 0.4 CALM 0 0 0 0 1015.2 - 0.0
31/02:00am 4.8 3.5 3.9 94 0.4 CALM 0 0 0 0 1015.5 1015.8 0.0
31/01:30am 4.9 3.6 3.9 93 0.4 CALM 0 0 0 0 1015.8 - 0.0
31/01:00am 4.8 3.4 3.5 91 0.5 CALM 0 0 0 0 1015.9 1016.2 0.0
31/12:30am 5.3 4.0 4.3 93 0.4 CALM 0 0 0 0 1016.1 - 0.0
31/12:00am 5.9 4.8 5.0 94 0.4 WNW 0 0 0 0 1016.4 1016.7 0.0
 
Date/Time
EST
Temp
°C
App
Temp
°C
Dew
Point
Rel
Hum
%
Delta-T
°C
Wind Press
QNH
hPa
Press
MSL
hPa
Rain
since 9 am
mm
Dir
 
Spd
km/h
Gust
km/h
Spd
kts
Gust
kts
30/11:30pm 5.6 4.4 4.4 92 0.5 CALM 0 0 0 0 1016.7 - 0.0
30/11:00pm 6.6 5.7 5.9 95 0.3 CALM 0 0 0 0 1016.8 1017.1 0.0
30/10:30pm 6.7 5.6 5.3 91 0.6 CALM 0 0 0 0 1016.9 - 0.0
30/10:00pm 7.6 6.7 6.2 91 0.6 CALM 0 0 0 0 1016.9 1017.2 0.0
30/09:30pm 7.8 6.9 6.1 89 0.8 CALM 0 0 0 0 1016.9 - 0.0
30/09:00pm 8.0 7.2 6.3 89 0.8 CALM 0 0 0 0 1017.0 1017.3 0.0
30/08:30pm 8.2 7.2 5.7 84 1.1 CALM 0 0 0 0 1017.1 - 0.0
30/08:00pm 9.1 8.2 6.0 81 1.4 CALM 0 0 0 0 1017.1 1017.4 0.0
30/07:30pm 11.0 10.4 7.5 79 1.7 CALM 0 0 0 0 1017.3 - 0.0
30/07:00pm 11.0 10.4 7.3 78 1.8 CALM 0 0 0 0 1017.4 1017.7 0.0
30/06:30pm 12.5 12.1 8.2 75 2.1 CALM 0 0 0 0 1017.1 - 0.0
30/06:00pm 13.5 11.9 8.1 70 2.7 N 6 7 3 4 1016.8 1017.1 0.0
30/05:30pm 14.8 13.8 8.7 67 3.1 N 4 9 2 5 1016.8 - 0.0
30/05:00pm 17.1 15.1 8.8 58 4.3 WNW 9 13 5 7 1016.8 1017.1 0.0
30/04:30pm 17.7 14.6 8.8 56 4.6 WNW 15 20 8 11 1016.8 - 0.0
30/04:00pm 18.5 15.0 8.7 53 5.1 WNW 17 22 9 12 1016.7 1017.0 0.0
30/03:30pm 18.3 14.4 8.8 54 5.0 WNW 19 26 10 14 1016.8 - 0.0
30/03:00pm 18.9 13.9 9.7 55 4.9 NW 26 33 14 18 1017.1 1017.4 0.0
30/02:30pm 18.3 12.7 8.8 54 5.0 WNW 28 37 15 20 1017.0 - 0.0
30/02:00pm 19.1 13.6 9.3 53 5.2 NW 28 35 15 19 1017.1 1017.4 0.0
30/01:30pm 18.0 13.0 9.6 58 4.5 NW 26 35 14 19 1017.5 - 0.0
30/01:00pm 17.6 13.6 9.0 57 4.5 WNW 20 30 11 16 1018.0 1018.3 0.0
30/12:30pm 18.4 14.4 10.3 59 4.4 WNW 22 30 12 16 1018.5 - 0.0
30/12:00pm 17.2 12.5 9.4 60 4.1 WNW 24 32 13 17 1019.1 1019.4 0.0
30/11:30am 17.2 12.7 10.1 63 3.8 WNW 24 33 13 18 1019.6 - 0.0
30/11:00am 16.5 12.6 9.4 63 3.7 NNW 20 24 11 13 1019.8 1020.0 0.0
30/10:30am 15.8 11.6 9.7 67 3.2 NNW 22 30 12 16 1020.0 - 0.0
30/10:00am 14.6 10.6 9.2 70 2.8 NNW 20 26 11 14 1020.1 1020.3 0.0
30/09:30am 14.1 10.0 8.5 69 2.8 NNW 20 26 11 14 1020.1 - 0.0
30/09:00am 13.5 10.0 8.6 72 2.5 NNW 17 20 9 11 1020.0 1020.2 -
30/08:30am 12.1 8.8 8.0 76 2.0 NW 15 19 8 10 1019.7 - -
30/08:00am 10.9 7.9 7.6 80 1.6 NW 13 19 7 10 1019.3 1019.6 -
30/07:30am 10.7 7.7 7.6 81 1.5 NW 13 15 7 8 1019.0 - -
30/07:00am 10.9 8.3 7.8 81 1.5 NW 11 13 6 7 1019.0 1019.3 -
30/06:30am 10.8 7.8 7.9 82 1.4 NNW 13 17 7 9 1018.8 - -
30/06:00am 10.3 7.3 7.5 83 1.3 NW 13 15 7 8 1018.6 1018.9 -
30/05:30am 11.1 8.1 7.6 79 1.7 NNW 13 17 7 9 1018.2 - -
30/05:00am 12.1 9.6 8.0 76 2.0 NW 11 13 6 7 1018.0 1018.3 -
30/04:30am 13.6 10.8 8.7 72 2.5 WNW 13 19 7 10 1017.9 - -
30/04:00am 13.8 10.2 8.4 70 2.7 WNW 17 24 9 13 1017.9 1018.2 -
30/03:30am 11.8 9.3 8.3 79 1.7 NW 11 17 6 9 1018.1 - -
30/03:00am 10.8 8.0 7.1 78 1.8 NW 11 13 6 7 1018.2 1018.5 0.0
30/02:30am 10.3 7.1 7.0 80 1.6 NNW 13 17 7 9 1018.3 - -
30/02:00am 9.8 6.9 6.7 81 1.5 NW 11 13 6 7 1018.3 1018.6 -
30/01:30am 9.8 6.1 6.2 78 1.7 NW 15 17 8 9 1018.1 - -
30/01:00am 9.8 6.4 6.0 77 1.8 NNW 13 15 7 8 1018.1 1018.4 -
30/12:30am 10.1 6.4 6.1 76 1.9 NNW 15 17 8 9 1018.3 - -
30/12:00am 10.4 6.7 6.2 75 2.0 NNW 15 19 8 10 1018.4 1018.7 -
 
Date/Time
EST
Temp
°C
App
Temp
°C
Dew
Point
Rel
Hum
%
Delta-T
°C
Wind Press
QNH
hPa
Press
MSL
hPa
Rain
since 9 am
mm
Dir
 
Spd
km/h
Gust
km/h
Spd
kts
Gust
kts
29/11:30pm 12.2 8.5 6.3 67 2.8 WNW 15 20 8 11 1018.2 - -
29/11:00pm 12.9 9.2 6.3 64 3.2 WNW 15 19 8 10 1018.5 1018.8 -
29/10:30pm 13.6 9.1 6.0 60 3.6 WNW 19 24 10 13 1018.4 - -
29/10:00pm 12.8 9.1 6.2 64 3.1 WNW 15 20 8 11 1018.4 1018.7 -
29/09:30pm 9.5 6.2 4.5 71 2.2 WNW 11 17 6 9 1018.3 - -
29/09:00pm 8.1 5.0 3.4 72 2.0 NW 9 9 5 5 1018.1 1018.4 0.0
29/08:30pm 11.7 9.0 3.7 58 3.6 W 7 9 4 5 1018.1 - -
29/08:00pm 9.5 6.2 4.5 71 2.2 WNW 11 13 6 7 1017.9 1018.2 -
29/07:30pm 9.5 7.1 4.3 70 2.3 NNW 6 7 3 4 1017.6 - -
29/07:00pm 10.8 8.4 4.5 65 2.8 NW 6 7 3 4 1017.2 1017.5 -
29/06:30pm 11.3 8.8 4.7 64 3.0 NNW 7 9 4 5 1016.6 - -
29/06:00pm 12.7 9.5 4.9 59 3.6 NNW 11 11 6 6 1016.2 1016.5 -
29/05:30pm 15.1 11.1 4.8 50 4.9 WNW 15 17 8 9 1016.1 - -
29/05:00pm 17.9 13.3 5.5 44 6.1 NW 19 28 10 15 1015.8 1016.1 -
29/04:30pm 19.1 13.0 4.8 39 7.0 NW 26 33 14 18 1015.7 - -
29/04:00pm 19.4 13.7 5.1 39 7.0 WNW 24 35 13 19 1015.6 1015.9 -
29/03:30pm 19.5 13.1 5.2 39 7.0 WNW 28 43 15 23 1015.8 - -
29/03:00pm 19.4 13.6 4.3 37 7.3 WNW 24 35 13 19 1016.0 1016.3 -
29/02:30pm 19.3 12.7 4.3 37 7.2 WNW 28 39 15 21 1016.2 - -
29/02:00pm 19.0 13.3 5.1 40 6.8 WNW 24 33 13 18 1016.2 1016.5 -
29/01:30pm 18.7 13.1 5.2 41 6.6 WNW 24 32 13 17 1016.5 - -
29/01:00pm 18.1 11.8 5.7 44 6.1 NNW 28 39 15 21 1016.6 1016.9 -
29/12:30pm 17.8 12.6 5.7 45 5.9 NNW 22 30 12 16 1017.0 - -
29/12:00pm 17.1 12.9 5.7 47 5.6 NNW 17 24 9 13 1017.7 1018.0 -
29/11:30am 16.1 11.8 5.1 48 5.3 NNW 17 24 9 13 1018.8 - 0.0
29/11:00am 15.0 11.4 5.0 51 4.7 NNW 13 17 7 9 1019.4 1019.7 0.0
29/10:30am 14.0 9.8 4.0 51 4.6 NNW 15 19 8 10 1019.3 - 0.0
29/10:00am 13.2 8.7 4.1 54 4.2 NW 17 20 9 11 1019.3 1019.6 0.0
29/09:30am 12.1 7.0 2.8 53 4.1 NNW 19 24 10 13 1018.9 - 0.0
29/09:00am 11.0 5.8 2.3 55 3.7 NW 19 24 10 13 1019.0 1019.3 -
29/08:30am 9.7 5.3 2.6 61 3.0 NW 15 20 8 11 1018.4 - -
29/08:00am 6.9 1.9 1.6 69 2.2 NNW 17 19 9 10 1018.4 1018.7 -
29/07:30am 6.4 1.5 1.7 72 1.9 NW 17 19 9 10 1018.4 - -
29/07:00am 6.6 2.0 1.3 69 2.1 NNW 15 19 8 10 1018.1 1018.4 -
29/06:30am 7.2 2.6 1.7 68 2.3 NW 15 17 8 9 1017.9 - -
29/06:00am 7.5 2.6 1.8 67 2.3 NW 17 17 9 9 1017.5 1017.8 -
29/05:30am 7.9 3.4 2.4 68 2.3 NNW 15 17 8 9 1017.3 - -
29/05:00am 7.1 3.0 2.4 72 2.0 NW 13 15 7 8 1017.3 1017.6 -
29/04:30am 7.9 3.9 2.6 69 2.2 NNW 13 17 7 9 1017.5 - -
29/04:00am 9.0 4.6 2.6 64 2.7 NW 15 17 8 9 1017.5 1017.8 -
29/03:30am 8.8 4.4 2.6 65 2.6 NW 15 17 8 9 1017.3 - -
29/03:00am 9.1 5.5 3.1 66 2.6 NW 11 15 6 8 1017.0 1017.3 -
29/02:30am 9.0 5.1 3.4 68 2.4 NNW 13 15 7 8 1017.1 - -
29/02:00am 9.1 6.3 3.3 67 2.5 NNW 7 9 4 5 1017.3 1017.6 -
29/01:30am 8.9 7.6 4.1 72 2.1 CALM 0 0 0 0 1017.4 - -
29/01:00am 8.8 6.2 3.4 69 2.3 NNW 6 7 3 4 1017.5 1017.8 -
29/12:30am 9.0 6.3 3.6 69 2.4 NW 7 9 4 5 1017.8 - -
29/12:00am 9.0 7.7 4.0 71 2.2 CALM 0 2 0 1 1018.2 1018.5 0.2
 
Date/Time
EST
Temp
°C
App
Temp
°C
Dew
Point
Rel
Hum
%
Delta-T
°C
Wind Press
QNH
hPa
Press
MSL
hPa
Rain
since 9 am
mm
Dir
 
Spd
km/h
Gust
km/h
Spd
kts
Gust
kts
28/11:30pm 8.9 7.6 3.9 71 2.2 CALM 0 0 0 0 1018.3 - 0.2

Other Formats:

Comma delimited format used in spreadsheet applications
http://www.bom.gov.au/fwo/IDN60801/IDN60801.95706.axf

JavaScript Object Notation format (JSON) in row-major order
http://www.bom.gov.au/fwo/IDN60801/IDN60801.95706.json